Time;durP1;ratioP1;P1;durP2;ratioP2;P2;SDS_P1;SDS_P2;PMS_P1;PMS_P2;Temp;Humidity;BMP_temperature;BMP_pressure;BME280_temperature;BME280_humidity;BME280_pressure;Samples;Min_cycle;Max_cycle;Signal;HPM_P1;HPM_P2
2021/12/24 00:01:13;;;;;;;30.52;3.55;;;7.00;95.20;;;;;;5076578;28;20059;-76
2021/12/24 00:03:41;;;;;;;32.85;3.38;;;7.00;95.10;;;;;;5094654;28;20044;-76
2021/12/24 00:06:12;;;;;;;19.42;2.97;;;7.00;95.00;;;;;;5093829;28;20529;-76
2021/12/24 00:08:42;;;;;;;27.95;2.88;;;7.00;95.00;;;;;;5056910;28;20051;-76
2021/12/24 00:11:09;;;;;;;25.52;2.80;;;7.00;94.90;;;;;;5080068;28;20047;-76
2021/12/24 00:13:41;;;;;;;24.20;3.47;;;7.00;94.80;;;;;;5094621;28;20048;-76
2021/12/24 00:16:26;;;;;;;22.77;2.95;;;7.00;94.80;;;;;;5094636;28;20040;-76
2021/12/24 00:19:01;;;;;;;21.33;3.10;;;6.90;94.80;;;;;;5073637;28;20522;-76
2021/12/24 00:22:13;;;;;;;21.30;3.05;;;7.00;94.90;;;;;;5073758;28;20069;-76
2021/12/24 00:35:31;;;;;;;23.42;3.35;;;6.80;94.60;;;;;;5073356;28;20048;-76
2021/12/24 00:38:03;;;;;;;25.80;2.88;;;6.80;94.50;;;;;;5072208;28;20064;-75
2021/12/24 00:40:35;;;;;;;27.80;3.65;;;6.70;94.40;;;;;;5039216;28;20048;-76
2021/12/24 00:43:03;;;;;;;24.63;3.53;;;6.60;94.20;;;;;;5073607;28;20071;-76
2021/12/24 00:45:35;;;;;;;30.92;3.50;;;6.40;94.10;;;;;;5073633;28;20040;-76
2021/12/24 00:48:06;;;;;;;28.02;3.75;;;6.40;93.90;;;;;;5072064;28;20052;-76
2021/12/24 00:51:07;;;;;;;26.08;4.03;;;6.20;93.70;;;;;;5055424;28;20052;-76
2021/12/24 00:56:08;;;;;;;33.97;6.50;;;5.80;93.50;;;;;;5080314;28;20059;-76
2021/12/24 00:58:37;;;;;;;34.05;6.28;;;5.70;93.60;;;;;;5072085;28;20059;-76
2021/12/24 01:01:07;;;;;;;36.58;7.00;;;5.60;93.80;;;;;;5071873;28;20048;-76
2021/12/24 01:03:35;;;;;;;30.92;5.75;;;5.50;93.80;;;;;;5104837;28;20131;-76
2021/12/24 01:06:03;;;;;;;24.88;6.20;;;5.30;93.60;;;;;;5091292;28;20056;-76
2021/12/24 01:08:32;;;;;;;32.30;6.43;;;5.30;94.00;;;;;;5091978;28;20036;-76
2021/12/24 01:11:03;;;;;;;32.42;5.47;;;5.20;94.30;;;;;;5092105;28;20399;-77
2021/12/24 01:13:30;;;;;;;37.50;5.47;;;5.30;94.60;;;;;;5093277;28;20059;-77
2021/12/24 01:16:03;;;;;;;32.08;5.38;;;5.30;94.90;;;;;;5092711;28;20056;-77
2021/12/24 01:21:21;;;;;;;37.38;6.22;;;5.30;94.80;;;;;;5071837;28;20052;-77
2021/12/24 01:23:57;;;;;;;32.15;5.82;;;5.30;95.00;;;;;;5090524;28;20055;-77
2021/12/24 01:40:18;;;;;;;45.28;11.07;;;4.50;93.60;;;;;;5071423;28;20051;-77
2021/12/24 01:42:46;;;;;;;90.00;11.10;;;4.30;93.60;;;;;;5072401;28;20052;-77
2021/12/24 01:45:27;;;;;;;92.90;14.93;;;4.20;93.70;;;;;;5071265;28;20402;-76
2021/12/24 01:47:58;;;;;;;39.75;9.55;;;4.10;93.90;;;;;;5072364;28;20044;-76
2021/12/24 01:50:28;;;;;;;39.95;8.27;;;4.00;93.80;;;;;;5072630;28;20079;-77
2021/12/24 01:52:57;;;;;;;38.92;9.45;;;3.90;93.90;;;;;;5072339;28;20052;-77
2021/12/24 01:55:28;;;;;;;89.15;9.63;;;3.80;94.00;;;;;;5072292;28;20045;-77
2021/12/24 01:57:56;;;;;;;131.45;9.88;;;3.80;94.00;;;;;;5070967;28;20036;-76
2021/12/24 02:00:37;;;;;;;111.00;11.43;;;3.70;94.00;;;;;;5070721;28;20410;-77
2021/12/24 02:03:11;;;;;;;61.83;10.60;;;3.60;93.90;;;;;;5071099;28;20049;-77
2021/12/24 02:05:40;;;;;;;129.93;10.38;;;3.50;93.90;;;;;;5072251;28;20536;-77
2021/12/24 02:08:10;;;;;;;124.97;12.63;;;3.40;94.10;;;;;;5070563;28;20554;-77
2021/12/24 02:10:38;;;;;;;84.80;9.35;;;3.40;94.20;;;;;;5085511;28;20051;-77
2021/12/24 02:13:07;;;;;;;269.50;16.55;;;3.30;94.20;;;;;;5070907;28;20040;-77
2021/12/24 02:28:57;;;;;;;44.63;10.52;;;3.30;95.40;;;;;;5070216;28;20048;-76
2021/12/24 02:31:26;;;;;;;32.30;10.15;;;3.40;95.60;;;;;;5070542;28;20407;-76
2021/12/24 02:33:54;;;;;;;38.38;10.65;;;3.50;95.80;;;;;;5070763;28;20044;-76
2021/12/24 02:36:24;;;;;;;42.55;11.23;;;3.50;95.90;;;;;;5070589;28;20410;-76
2021/12/24 02:38:52;;;;;;;59.55;14.60;;;3.60;96.00;;;;;;5070608;28;20071;-75
2021/12/24 02:41:20;;;;;;;55.10;12.90;;;3.70;96.10;;;;;;5070583;28;20052;-76
2021/12/24 02:43:49;;;;;;;60.13;13.77;;;3.80;96.10;;;;;;5071800;28;20198;-75
2021/12/24 02:46:33;;;;;;;50.10;13.73;;;3.80;96.20;;;;;;5070526;28;20053;-76
2021/12/24 02:49:08;;;;;;;51.95;15.07;;;3.90;96.20;;;;;;5074830;28;20064;-76
2021/12/24 02:54:24;;;;;;;62.63;15.50;;;4.10;96.30;;;;;;5094338;28;20150;-76
2021/12/24 02:56:57;;;;;;;53.10;13.65;;;4.20;96.30;;;;;;5094355;28;20048;-76
2021/12/24 02:59:26;;;;;;;33.33;10.50;;;4.30;96.30;;;;;;5094630;28;20052;-75
2021/12/24 03:01:57;;;;;;;44.40;11.65;;;4.30;96.40;;;;;;5094061;28;20040;-76
2021/12/24 03:04:25;;;;;;;50.22;12.77;;;4.40;96.30;;;;;;5094580;28;20052;-75
2021/12/24 03:06:53;;;;;;;37.45;12.30;;;4.40;96.30;;;;;;5077876;28;20043;-75
2021/12/24 03:09:22;;;;;;;48.83;14.00;;;4.50;96.30;;;;;;5086520;28;20033;-75
2021/12/24 03:11:52;;;;;;;33.70;12.73;;;4.60;96.40;;;;;;5076780;28;20044;-76
2021/12/24 03:14:22;;;;;;;42.03;12.95;;;4.60;96.40;;;;;;5075358;28;20055;-75
2021/12/24 03:16:57;;;;;;;42.42;13.13;;;4.70;96.40;;;;;;5075449;28;20399;-75
2021/12/24 03:19:31;;;;;;;41.03;11.50;;;4.70;96.40;;;;;;5074202;28;20056;-75
2021/12/24 03:24:39;;;;;;;39.13;11.07;;;4.70;96.30;;;;;;5073641;28;20048;-75
2021/12/24 03:27:08;;;;;;;47.45;11.10;;;4.80;96.30;;;;;;5074998;28;20044;-76
2021/12/24 03:29:36;;;;;;;39.72;11.52;;;4.80;96.30;;;;;;5090235;28;20406;-76
2021/12/24 03:32:04;;;;;;;49.35;12.60;;;4.80;96.30;;;;;;5095353;28;20052;-76
2021/12/24 03:34:32;;;;;;;46.45;12.48;;;4.80;96.30;;;;;;5095497;28;20491;-75
2021/12/24 03:37:01;;;;;;;41.50;12.15;;;4.90;96.30;;;;;;5094153;28;20051;-75
2021/12/24 03:39:32;;;;;;;37.92;10.95;;;4.90;96.30;;;;;;5076941;28;20486;-76
2021/12/24 03:42:04;;;;;;;37.67;11.60;;;4.90;96.30;;;;;;5081014;28;20510;-76
2021/12/24 03:44:37;;;;;;;39.10;11.85;;;5.00;96.20;;;;;;5073730;28;20051;-76
2021/12/24 03:47:11;;;;;;;46.55;13.43;;;4.90;96.20;;;;;;5074874;28;20048;-76
2021/12/24 03:54:56;;;;;;;40.42;12.77;;;5.00;96.20;;;;;;5073470;28;20052;-76
2021/12/24 03:57:34;;;;;;;43.55;14.00;;;5.10;96.20;;;;;;5087853;28;20047;-76
2021/12/24 04:00:32;;;;;;;37.05;12.35;;;5.10;96.30;;;;;;5078241;28;20048;-76
2021/12/24 04:03:22;;;;;;;40.50;12.63;;;5.20;96.30;;;;;;5093359;28;20060;-76
2021/12/24 04:05:50;;;;;;;38.30;12.25;;;5.20;96.20;;;;;;5093668;28;20044;-76
2021/12/24 04:08:33;;;;;;;32.15;12.02;;;5.20;96.30;;;;;;5094670;28;20403;-76
2021/12/24 04:11:27;;;;;;;41.15;11.93;;;5.30;96.30;;;;;;5075476;28;20059;-76
2021/12/24 04:13:55;;;;;;;42.65;11.90;;;5.30;96.20;;;;;;5072995;28;20052;-76
2021/12/24 04:16:23;;;;;;;35.13;12.07;;;5.30;96.20;;;;;;5073253;28;20483;-76
2021/12/24 04:19:19;;;;;;;45.38;12.55;;;5.30;96.20;;;;;;5072903;28;20411;-76
2021/12/24 04:24:52;;;;;;;42.20;12.68;;;5.30;96.10;;;;;;5092637;28;20051;-76
2021/12/24 04:27:26;;;;;;;37.50;12.32;;;5.30;96.10;;;;;;5076146;28;20048;-76
2021/12/24 04:30:25;;;;;;;50.25;13.85;;;5.30;96.10;;;;;;5092830;28;20513;-76
2021/12/24 04:51:23;;;;;;;35.05;7.80;;;5.80;96.30;;;;;;5073390;28;20048;-76
2021/12/24 05:05:10;;;;;;;22.73;5.60;;;6.30;96.30;;;;;;5038895;28;20056;-76
2021/12/24 05:10:23;;;;;;;33.45;8.82;;;6.30;96.20;;;;;;5053273;28;20395;-76
2021/12/24 05:12:50;;;;;;;29.17;9.52;;;6.30;96.10;;;;;;5055271;28;20048;-76
2021/12/24 05:15:23;;;;;;;33.78;10.75;;;6.20;96.00;;;;;;5055101;28;20032;-76
2021/12/24 05:23:44;;;;;;;43.28;11.75;;;6.00;95.70;;;;;;5054842;28;20045;-77
2021/12/24 05:26:13;;;;;;;40.03;11.32;;;6.00;95.70;;;;;;5071420;28;20040;-76
2021/12/24 05:28:41;;;;;;;45.72;12.00;;;5.90;95.70;;;;;;5071881;28;20052;-76
2021/12/24 05:31:14;;;;;;;47.13;12.68;;;5.90;95.70;;;;;;5070428;28;20052;-77
2021/12/24 05:33:42;;;;;;;39.65;11.00;;;5.80;95.60;;;;;;5055021;28;20064;-76
2021/12/24 05:36:10;;;;;;;30.05;5.28;;;5.80;95.50;;;;;;5079391;28;20040;-76
2021/12/24 05:38:37;;;;;;;30.33;4.32;;;5.80;95.50;;;;;;5091792;28;20382;-77
2021/12/24 05:41:05;;;;;;;19.95;4.93;;;5.90;95.80;;;;;;5092907;28;20044;-75
2021/12/24 05:43:33;;;;;;;28.33;4.45;;;6.10;96.00;;;;;;5074878;28;20048;-75
2021/12/24 05:46:01;;;;;;;22.45;4.07;;;6.10;96.00;;;;;;5073974;28;20390;-75
2021/12/24 05:48:39;;;;;;;22.27;3.90;;;6.20;96.00;;;;;;5074667;28;20048;-75
2021/12/24 05:51:10;;;;;;;27.63;4.03;;;6.20;95.90;;;;;;5070635;28;20040;-76
2021/12/24 05:53:58;;;;;;;31.30;6.97;;;6.20;95.70;;;;;;5048023;28;20051;-75
2021/12/24 05:56:29;;;;;;;38.42;8.40;;;6.10;95.30;;;;;;5057648;28;20048;-75
2021/12/24 05:59:10;;;;;;;33.35;8.55;;;6.00;95.00;;;;;;5073975;28;20036;-76
2021/12/24 06:01:38;;;;;;;34.88;6.50;;;5.80;94.80;;;;;;5063779;28;20032;-75
2021/12/24 06:04:06;;;;;;;27.55;5.47;;;5.70;94.80;;;;;;5072252;28;20403;-75
2021/12/24 06:06:34;;;;;;;26.98;5.43;;;5.70;94.90;;;;;;5054482;28;20045;-75
2021/12/24 06:09:02;;;;;;;38.83;7.25;;;5.70;95.00;;;;;;5054530;28;20055;-75
2021/12/24 06:11:30;;;;;;;33.97;10.00;;;5.60;95.00;;;;;;5071364;28;20049;-75
2021/12/24 06:13:58;;;;;;;40.88;10.45;;;5.50;94.80;;;;;;5065002;28;20051;-74
2021/12/24 06:16:26;;;;;;;34.35;10.90;;;5.40;94.60;;;;;;5092421;28;20044;-75
2021/12/24 06:19:00;;;;;;;34.78;10.02;;;5.30;94.60;;;;;;5092330;28;20151;-75
2021/12/24 06:21:28;;;;;;;53.17;11.65;;;5.30;94.70;;;;;;5058570;28;20052;-76
2021/12/24 06:23:57;;;;;;;53.70;11.52;;;5.20;94.80;;;;;;5074471;28;20402;-75
2021/12/24 06:26:24;;;;;;;48.92;11.65;;;5.20;94.90;;;;;;5091042;28;20066;-76
2021/12/24 06:28:52;;;;;;;41.90;11.40;;;5.10;95.00;;;;;;5077500;28;20059;-76
2021/12/24 06:31:19;;;;;;;62.50;14.10;;;5.00;94.80;;;;;;5054109;28;20053;-76
2021/12/24 06:33:47;;;;;;;55.30;13.27;;;5.00;94.60;;;;;;5072090;28;20051;-76
2021/12/24 06:36:14;;;;;;;59.20;13.63;;;4.80;94.60;;;;;;5053870;28;20139;-76
2021/12/24 06:38:42;;;;;;;61.80;13.90;;;4.80;94.60;;;;;;5071587;28;20056;-76
2021/12/24 06:41:10;;;;;;;49.47;13.57;;;4.80;94.60;;;;;;5053845;28;20057;-76
2021/12/24 06:43:37;;;;;;;59.65;13.93;;;4.70;94.70;;;;;;5071794;28;20518;-76
2021/12/24 06:46:11;;;;;;;56.50;14.82;;;4.80;94.90;;;;;;5085583;28;20044;-77
2021/12/24 06:48:41;;;;;;;;;;;4.70;94.90;;;;;;5073545;28;20055;-76
2021/12/24 06:51:09;;;;;;;47.38;11.23;;;4.70;95.00;;;;;;5073827;28;19947;-76
2021/12/24 06:53:37;;;;;;;48.00;12.73;;;4.70;95.20;;;;;;5091960;28;20194;-76
2021/12/24 06:56:05;;;;;;;49.22;10.60;;;4.80;95.40;;;;;;5056788;28;20419;-76
2021/12/24 06:58:38;;;;;;;44.80;11.70;;;4.90;95.60;;;;;;5063162;28;20044;-76
2021/12/24 07:01:05;;;;;;;47.83;10.20;;;4.90;95.60;;;;;;5070389;28;20041;-76
2021/12/24 07:03:34;;;;;;;30.75;10.32;;;4.90;95.40;;;;;;5053385;28;20045;-76
2021/12/24 07:06:01;;;;;;;48.10;10.05;;;4.90;95.30;;;;;;5071738;28;20369;-76
2021/12/24 07:08:30;;;;;;;46.50;11.35;;;4.80;95.20;;;;;;5071666;28;20044;-76
2021/12/24 07:10:58;;;;;;;55.17;11.93;;;4.80;95.20;;;;;;5071533;28;20055;-76
2021/12/24 07:13:26;;;;;;;48.30;11.65;;;4.80;95.30;;;;;;5071672;28;20059;-77
2021/12/24 07:15:54;;;;;;;55.70;12.60;;;4.70;95.40;;;;;;5049472;28;20048;-78
2021/12/24 07:18:22;;;;;;;42.17;12.55;;;4.80;95.50;;;;;;5091479;28;20407;-76
2021/12/24 07:20:50;;;;;;;59.70;13.38;;;4.80;95.60;;;;;;5073801;28;20048;-76
2021/12/24 07:23:18;;;;;;;60.55;15.65;;;4.90;95.70;;;;;;5091258;28;20051;-76
2021/12/24 07:25:46;;;;;;;66.22;15.38;;;4.90;95.70;;;;;;5090968;28;20044;-77
2021/12/24 07:28:13;;;;;;;58.85;15.70;;;4.90;95.80;;;;;;5085151;28;20047;-77
2021/12/24 07:30:41;;;;;;;54.42;14.77;;;4.90;95.70;;;;;;5071221;28;20048;-76
2021/12/24 07:33:09;;;;;;;56.25;14.23;;;4.90;95.70;;;;;;5071290;28;20048;-77
2021/12/24 07:35:36;;;;;;;53.70;14.25;;;4.90;95.70;;;;;;5074696;28;20044;-76
2021/12/24 07:38:04;;;;;;;62.30;17.48;;;4.90;95.70;;;;;;5076618;28;20406;-76
2021/12/24 07:40:31;;;;;;;50.53;13.80;;;4.90;95.70;;;;;;5094190;28;20048;-77
2021/12/24 07:42:59;;;;;;;41.60;11.57;;;5.00;95.80;;;;;;5072972;28;20048;-76
2021/12/24 07:45:27;;;;;;;40.50;11.75;;;5.00;95.90;;;;;;5074618;28;20052;-76
2021/12/24 07:48:09;;;;;;;30.48;9.90;;;5.20;96.00;;;;;;5074545;28;20418;-76
2021/12/24 07:53:10;;;;;;;45.83;11.13;;;5.30;96.00;;;;;;5074846;28;20052;-76
2021/12/24 07:55:38;;;;;;;54.17;11.25;;;5.30;95.70;;;;;;5073405;28;20045;-76
2021/12/24 07:58:07;;;;;;;45.50;10.73;;;5.10;95.20;;;;;;5079365;28;20040;-77
2021/12/24 08:00:37;;;;;;;48.17;11.45;;;4.90;94.80;;;;;;5094193;28;20055;-75
2021/12/24 08:03:05;;;;;;;52.90;12.45;;;4.70;94.50;;;;;;5094888;28;20055;-76
2021/12/24 08:05:37;;;;;;;45.10;12.93;;;4.60;94.40;;;;;;5092901;28;20055;-76
2021/12/24 08:08:06;;;;;;;53.72;12.82;;;4.40;94.40;;;;;;5089926;28;20048;-76
2021/12/24 08:10:34;;;;;;;58.45;14.68;;;4.30;94.30;;;;;;5073244;28;20536;-75
2021/12/24 08:13:03;;;;;;;67.25;15.50;;;4.20;94.30;;;;;;5074405;28;20075;-76
2021/12/24 08:15:31;;;;;;;53.90;15.88;;;4.20;94.50;;;;;;5074426;28;20526;-75
2021/12/24 08:17:59;;;;;;;88.18;20.90;;;4.10;94.60;;;;;;5074502;28;20048;-75
2021/12/24 08:20:27;;;;;;;313.52;27.65;;;4.10;94.80;;;;;;5074466;28;20052;-76
2021/12/24 08:22:56;;;;;;;547.65;33.70;;;4.10;94.90;;;;;;5078592;28;20051;-76
2021/12/24 08:25:24;;;;;;;625.97;33.10;;;4.10;95.10;;;;;;5094391;28;20047;-76
2021/12/24 08:27:53;;;;;;;540.83;30.50;;;4.00;95.10;;;;;;5073841;28;20055;-76
2021/12/24 08:30:20;;;;;;;648.75;32.33;;;4.10;95.10;;;;;;5072669;28;20478;-76
2021/12/24 08:32:48;;;;;;;643.00;31.13;;;4.10;95.30;;;;;;5074083;28;20048;-76
2021/12/24 08:35:20;;;;;;;772.67;35.80;;;4.10;95.40;;;;;;5073978;28;20051;-77
2021/12/24 08:37:48;;;;;;;473.42;28.23;;;4.10;95.50;;;;;;5075150;28;20066;-75
2021/12/24 08:40:16;;;;;;;507.25;27.42;;;4.10;95.60;;;;;;5094221;28;20036;-76
2021/12/24 08:42:44;;;;;;;580.63;29.52;;;4.10;95.60;;;;;;5093926;28;20048;-76
2021/12/24 08:45:12;;;;;;;650.83;33.88;;;4.10;95.60;;;;;;5074899;28;20059;-76
2021/12/24 08:47:41;;;;;;;682.75;32.35;;;4.20;95.70;;;;;;5075790;28;20406;-76
2021/12/24 08:50:10;;;;;;;449.48;24.13;;;4.20;95.80;;;;;;5074998;28;20056;-76
2021/12/24 08:52:38;;;;;;;365.92;24.90;;;4.20;95.90;;;;;;5090394;28;20051;-77
2021/12/24 08:55:06;;;;;;;621.67;29.02;;;4.20;95.90;;;;;;5073585;28;20067;-77
2021/12/24 08:57:34;;;;;;;667.17;31.52;;;4.20;96.00;;;;;;5055519;28;20055;-76
2021/12/24 09:00:05;;;;;;;609.65;31.40;;;4.30;96.00;;;;;;5038568;28;20076;-76
2021/12/24 09:02:33;;;;;;;537.58;29.40;;;4.30;96.10;;;;;;5071964;28;20044;-77
2021/12/24 09:05:01;;;;;;;760.63;32.08;;;4.30;96.10;;;;;;5073222;28;20051;-76
2021/12/24 09:07:29;;;;;;;620.10;28.30;;;4.30;96.10;;;;;;5073288;28;20045;-76
2021/12/24 09:09:56;;;;;;;604.40;28.70;;;4.30;96.10;;;;;;5074050;28;20044;-77
2021/12/24 09:12:24;;;;;;;519.10;28.15;;;4.40;96.10;;;;;;5093315;28;20048;-77
2021/12/24 09:14:53;;;;;;;617.85;32.25;;;4.30;96.10;;;;;;5092613;28;20052;-76
2021/12/24 09:17:22;;;;;;;620.95;32.22;;;4.40;96.10;;;;;;5093395;28;20040;-76
2021/12/24 09:19:51;;;;;;;514.55;36.53;;;4.40;96.10;;;;;;5093149;28;20487;-76
2021/12/24 09:22:21;;;;;;;613.53;35.38;;;4.50;96.20;;;;;;5075021;28;20060;-77
2021/12/24 09:24:51;;;;;;;616.20;35.22;;;4.50;96.20;;;;;;5055949;28;20503;-76
2021/12/24 09:27:19;;;;;;;382.90;27.30;;;4.50;96.20;;;;;;5082397;28;20048;-76
2021/12/24 09:29:47;;;;;;;602.60;31.42;;;4.50;96.20;;;;;;5074695;28;20051;-77
2021/12/24 09:32:15;;;;;;;488.55;30.92;;;4.50;96.20;;;;;;5092856;28;20044;-76
2021/12/24 09:34:43;;;;;;;561.25;30.25;;;4.60;96.20;;;;;;5093068;28;20441;-77
2021/12/24 09:37:10;;;;;;;498.85;26.63;;;4.60;96.20;;;;;;5092929;28;20426;-76
2021/12/24 09:39:38;;;;;;;456.42;23.23;;;4.60;96.20;;;;;;5091298;28;20051;-76
2021/12/24 09:42:06;;;;;;;756.13;33.92;;;4.70;96.20;;;;;;5092825;28;20036;-76
2021/12/24 09:44:33;;;;;;;477.77;26.35;;;4.60;96.20;;;;;;5091677;28;20056;-76
2021/12/24 09:47:01;;;;;;;619.70;26.83;;;4.60;96.20;;;;;;5066948;28;20495;-76
2021/12/24 09:49:29;;;;;;;428.98;25.45;;;4.60;96.10;;;;;;5054622;28;20060;-77
2021/12/24 09:51:57;;;;;;;535.50;25.23;;;4.70;96.20;;;;;;5072455;28;20044;-77
2021/12/24 09:54:26;;;;;;;535.85;23.85;;;4.70;96.20;;;;;;5072391;28;20514;-77
2021/12/24 09:56:56;;;;;;;521.03;26.08;;;4.70;96.20;;;;;;5072024;28;20495;-76
2021/12/24 09:59:24;;;;;;;626.65;24.98;;;4.70;96.20;;;;;;5070117;28;20052;-76
2021/12/24 10:01:56;;;;;;;523.25;22.58;;;4.70;96.20;;;;;;5091839;28;20051;-76
2021/12/24 10:04:30;;;;;;;597.33;27.05;;;4.70;96.10;;;;;;5091531;28;20054;-76
2021/12/24 10:07:05;;;;;;;352.20;17.90;;;4.70;96.10;;;;;;5091557;28;20403;-76
2021/12/24 10:09:38;;;;;;;476.83;20.13;;;4.70;96.10;;;;;;5091840;28;20048;-76
2021/12/24 10:12:17;;;;;;;479.23;20.90;;;4.70;96.10;;;;;;5092475;28;20032;-75
2021/12/24 10:15:01;;;;;;;462.63;15.90;;;4.70;96.10;;;;;;5092368;28;20066;-77
2021/12/24 10:17:32;;;;;;;347.27;16.30;;;4.80;96.10;;;;;;5091691;28;20063;-76
2021/12/24 10:20:10;;;;;;;526.17;21.27;;;4.80;96.10;;;;;;5092490;28;20176;-76
2021/12/24 10:22:51;;;;;;;381.23;21.90;;;4.80;96.10;;;;;;5059918;28;20483;-77
2021/12/24 10:25:28;;;;;;;479.50;24.38;;;4.80;96.10;;;;;;5072076;28;20483;-76
2021/12/24 10:27:56;;;;;;;462.92;25.08;;;4.80;96.10;;;;;;5071064;28;20055;-76
2021/12/24 10:30:32;;;;;;;385.20;28.98;;;4.80;96.10;;;;;;5071799;28;20052;-76
2021/12/24 10:33:10;;;;;;;382.80;25.23;;;4.80;96.10;;;;;;5069448;28;20491;-77
2021/12/24 10:35:39;;;;;;;307.17;20.52;;;4.80;96.10;;;;;;5071958;28;20127;-76
2021/12/24 10:38:17;;;;;;;166.20;17.27;;;4.90;96.20;;;;;;5070962;28;20538;-77
2021/12/24 10:40:57;;;;;;;146.88;19.75;;;5.00;96.20;;;;;;5054128;28;20056;-75
2021/12/24 10:43:36;;;;;;;175.65;19.50;;;5.00;96.20;;;;;;5074895;28;20051;-75
2021/12/24 10:46:14;;;;;;;158.10;18.33;;;5.10;96.20;;;;;;5071987;28;20052;-76
2021/12/24 10:49:08;;;;;;;221.05;19.25;;;5.10;96.20;;;;;;5085606;28;20493;-75
2021/12/24 10:51:59;;;;;;;268.02;19.73;;;5.20;96.20;;;;;;5074046;28;20044;-76
2021/12/24 10:54:27;;;;;;;218.48;17.45;;;5.20;96.20;;;;;;5091890;28;20062;-75
2021/12/24 10:57:17;;;;;;;232.77;18.55;;;5.30;96.20;;;;;;5091716;28;20063;-74
2021/12/24 10:59:50;;;;;;;235.05;17.30;;;5.30;96.20;;;;;;5073781;28;20040;-74
2021/12/24 11:02:19;;;;;;;297.02;19.80;;;5.40;96.20;;;;;;5092230;28;20059;-74
2021/12/24 11:04:47;;;;;;;229.45;17.77;;;5.40;96.20;;;;;;5090802;28;20048;-74
2021/12/24 11:07:30;;;;;;;199.43;16.60;;;5.40;96.20;;;;;;5091867;28;20083;-74
2021/12/24 11:10:14;;;;;;;303.60;17.83;;;5.50;96.20;;;;;;5057693;28;20060;-74
2021/12/24 11:12:47;;;;;;;278.92;17.40;;;5.60;96.20;;;;;;5092344;28;20052;-74
2021/12/24 11:15:26;;;;;;;360.67;18.45;;;5.60;96.20;;;;;;5077614;28;20059;-74
2021/12/24 11:18:03;;;;;;;222.57;17.15;;;5.60;96.10;;;;;;5095804;28;20055;-74
2021/12/24 11:20:31;;;;;;;216.30;16.50;;;5.70;96.10;;;;;;5088931;28;20479;-74
2021/12/24 11:23:04;;;;;;;156.63;16.17;;;5.70;96.10;;;;;;5075408;28;20060;-75
2021/12/24 11:25:46;;;;;;;284.88;18.27;;;5.80;96.10;;;;;;5040686;28;20053;-74
2021/12/24 11:28:15;;;;;;;160.10;15.65;;;5.80;96.10;;;;;;5075171;28;20059;-75
2021/12/24 11:30:50;;;;;;;180.05;16.30;;;5.90;96.10;;;;;;5075156;28;20056;-74
2021/12/24 11:33:23;;;;;;;216.50;16.85;;;6.00;96.10;;;;;;5075116;28;20499;-75
2021/12/24 11:35:53;;;;;;;207.23;18.70;;;6.00;96.10;;;;;;5066051;28;20044;-74
2021/12/24 11:38:27;;;;;;;204.70;18.33;;;6.10;96.10;;;;;;5080750;28;20055;-74
2021/12/24 11:40:57;;;;;;;312.40;21.83;;;6.20;96.10;;;;;;5076843;28;20371;-74
2021/12/24 11:43:32;;;;;;;319.90;21.40;;;6.30;96.10;;;;;;5095338;28;20052;-74
2021/12/24 11:46:03;;;;;;;238.20;19.92;;;6.30;96.10;;;;;;5093778;28;20055;-74
2021/12/24 11:48:33;;;;;;;119.88;16.05;;;6.30;96.00;;;;;;5094028;28;20051;-74
2021/12/24 11:51:23;;;;;;;138.00;15.25;;;6.40;96.00;;;;;;5094991;28;20044;-74
2021/12/24 11:53:53;;;;;;;169.95;17.40;;;6.30;95.90;;;;;;5083436;28;20052;-75
2021/12/24 11:56:22;;;;;;;129.18;16.90;;;6.40;95.90;;;;;;5078349;28;20067;-74
2021/12/24 11:58:56;;;;;;;224.25;21.40;;;6.40;95.80;;;;;;5074934;28;20060;-74
2021/12/24 12:01:27;;;;;;;142.27;20.17;;;6.50;95.90;;;;;;5072978;28;20055;-75
2021/12/24 12:03:57;;;;;;;143.45;21.25;;;6.50;95.90;;;;;;5073320;28;20475;-75
2021/12/24 12:06:25;;;;;;;139.00;18.02;;;6.50;95.80;;;;;;5074632;28;20048;-77
2021/12/24 12:08:57;;;;;;;136.55;19.35;;;6.60;95.80;;;;;;5074426;28;20064;-77
2021/12/24 12:11:29;;;;;;;132.85;18.75;;;6.60;95.80;;;;;;5089447;28;20040;-74
2021/12/24 12:14:01;;;;;;;76.60;18.15;;;6.60;95.70;;;;;;5094508;28;20055;-75
2021/12/24 12:16:51;;;;;;;128.97;19.73;;;6.60;95.70;;;;;;5094653;28;20044;-74
2021/12/24 12:22:12;;;;;;;150.10;25.60;;;6.60;95.70;;;;;;5094272;28;20052;-74
2021/12/24 12:24:58;;;;;;;134.35;26.23;;;6.70;95.70;;;;;;5093149;28;20375;-74
2021/12/24 12:27:28;;;;;;;133.23;27.20;;;6.70;95.60;;;;;;5073058;28;20391;-74
2021/12/24 12:29:56;;;;;;;150.45;27.08;;;6.60;95.60;;;;;;5073929;28;20487;-76
2021/12/24 12:32:37;;;;;;;135.27;26.40;;;6.70;95.60;;;;;;5075672;28;20045;-76
2021/12/24 12:35:05;;;;;;;95.22;25.02;;;6.70;95.50;;;;;;5071788;28;20052;-75
2021/12/24 12:37:51;;;;;;;148.38;26.85;;;6.60;95.50;;;;;;5073513;28;20387;-75
2021/12/24 12:40:19;;;;;;;144.75;27.45;;;6.60;95.50;;;;;;5073664;28;20048;-76
2021/12/24 12:42:53;;;;;;;180.82;26.90;;;6.60;95.50;;;;;;5082186;28;20040;-76
2021/12/24 12:45:31;;;;;;;139.60;28.13;;;6.60;95.50;;;;;;5093821;28;20054;-76
2021/12/24 12:48:02;;;;;;;141.07;28.67;;;6.60;95.50;;;;;;5075595;28;20525;-76
2021/12/24 12:50:31;;;;;;;149.65;29.90;;;6.60;95.50;;;;;;5093630;28;20051;-76
2021/12/24 12:53:35;;;;;;;151.02;28.13;;;6.70;95.50;;;;;;5093873;28;20040;-76
2021/12/24 12:56:14;;;;;;;134.15;28.27;;;6.70;95.40;;;;;;5063916;28;20041;-76
2021/12/24 12:59:03;;;;;;;118.95;26.40;;;6.70;95.40;;;;;;5055437;28;20506;-75
2021/12/24 13:01:33;;;;;;;105.05;26.23;;;6.70;95.40;;;;;;5073273;28;20040;-76
2021/12/24 13:04:03;;;;;;;111.93;28.17;;;6.80;95.40;;;;;;5055259;28;20049;-76
2021/12/24 13:06:41;;;;;;;108.90;26.92;;;6.70;95.40;;;;;;5055307;28;20048;-76
2021/12/24 13:09:34;;;;;;;97.22;25.27;;;6.80;95.40;;;;;;5073243;28;20071;-76
2021/12/24 13:12:03;;;;;;;73.68;24.67;;;6.80;95.30;;;;;;5091859;28;20040;-76
2021/12/24 13:14:35;;;;;;;93.07;25.25;;;6.80;95.30;;;;;;5093067;28;20490;-76
2021/12/24 13:17:26;;;;;;;94.90;26.40;;;6.80;95.30;;;;;;5093298;28;20048;-75
2021/12/24 13:20:11;;;;;;;75.13;21.77;;;6.90;95.30;;;;;;5077834;28;20048;-75
2021/12/24 13:22:38;;;;;;;75.95;20.80;;;6.90;95.20;;;;;;5072666;28;20055;-75
2021/12/24 13:25:15;;;;;;;66.85;20.92;;;7.00;95.20;;;;;;5054864;28;20052;-75
2021/12/24 13:27:51;;;;;;;67.82;20.48;;;7.00;95.10;;;;;;5072737;28;20377;-75
2021/12/24 13:30:20;;;;;;;103.53;20.95;;;7.00;95.10;;;;;;5079037;28;20051;-75
2021/12/24 13:32:57;;;;;;;63.92;18.48;;;7.00;95.00;;;;;;5090846;28;20447;-75
2021/12/24 13:35:31;;;;;;;50.45;18.00;;;7.00;94.90;;;;;;5057749;28;20051;-74
2021/12/24 13:37:59;;;;;;;49.38;17.40;;;7.00;94.90;;;;;;5073684;28;20406;-75
2021/12/24 13:40:32;;;;;;;52.75;17.55;;;7.00;94.80;;;;;;5070858;28;20048;-76
2021/12/24 13:43:06;;;;;;;;;;;7.00;94.80;;;;;;5061235;28;20055;-76
2021/12/24 13:45:36;;;;;;;68.90;20.33;;;7.00;94.70;;;;;;5074720;28;19924;-75
2021/12/24 13:48:12;;;;;;;62.92;21.05;;;7.10;94.70;;;;;;5092462;28;20048;-75
2021/12/24 13:56:43;;;;;;;61.13;20.27;;;7.20;94.50;;;;;;5072246;28;20049;-75
2021/12/24 13:59:14;;;;;;;68.85;20.48;;;7.20;94.40;;;;;;5068351;28;20055;-75
2021/12/24 14:01:43;;;;;;;52.75;16.67;;;7.10;94.30;;;;;;5074198;28;20056;-76
2021/12/24 14:04:14;;;;;;;55.08;17.77;;;7.00;94.20;;;;;;5092320;28;20051;-75
2021/12/24 14:06:45;;;;;;;40.95;16.08;;;7.00;94.10;;;;;;5086653;28;20071;-76
2021/12/24 14:09:25;;;;;;;61.45;16.02;;;6.90;94.00;;;;;;5072056;28;20037;-75
2021/12/24 14:11:54;;;;;;;59.08;15.77;;;6.80;94.00;;;;;;5071918;28;20403;-75
2021/12/24 14:14:29;;;;;;;47.40;14.38;;;6.80;94.00;;;;;;5086238;28;20044;-75
2021/12/24 14:19:49;;;;;;;50.20;16.67;;;6.70;94.00;;;;;;5092121;28;20083;-75
2021/12/24 14:22:18;;;;;;;46.53;16.60;;;6.60;93.90;;;;;;5092042;28;20040;-75
2021/12/24 14:24:53;;;;;;;53.33;15.50;;;6.50;93.90;;;;;;5091311;28;20056;-76
2021/12/24 14:27:23;;;;;;;54.78;15.30;;;6.50;94.00;;;;;;5060683;28;20415;-75
2021/12/24 14:29:57;;;;;;;47.63;16.25;;;6.40;93.90;;;;;;5071875;28;20052;-75
2021/12/24 14:32:39;;;;;;;48.33;15.80;;;6.40;94.00;;;;;;5053767;28;20064;-75
2021/12/24 14:35:16;;;;;;;51.20;15.70;;;6.30;93.90;;;;;;5071750;28;20048;-75
2021/12/24 14:37:57;;;;;;;53.03;15.85;;;6.30;93.90;;;;;;5054059;28;20538;-75
2021/12/24 14:40:26;;;;;;;39.78;12.77;;;6.30;94.00;;;;;;5053959;28;20097;-75
2021/12/24 14:42:55;;;;;;;46.53;12.43;;;6.30;93.90;;;;;;5089416;28;20044;-76
2021/12/24 14:45:26;;;;;;;50.15;12.70;;;6.20;93.90;;;;;;5079997;28;20048;-75
2021/12/24 14:48:07;;;;;;;53.30;13.90;;;6.20;93.90;;;;;;5094824;28;20048;-75
2021/12/24 14:50:43;;;;;;;50.67;13.20;;;6.20;94.00;;;;;;5095874;28;20047;-75